sensor_id;sensor_type;location;lat;lon;timestamp;P1;durP1;ratioP1;P2;durP2;ratioP2
15454;SDS011;21057;51.024;7.540;2023-05-29T00:00:59;15.38;;;14.38;;
15454;SDS011;21057;51.024;7.540;2023-05-29T00:03:26;15.05;;;14.18;;
15454;SDS011;21057;51.024;7.540;2023-05-29T00:05:52;15.35;;;14.02;;
15454;SDS011;21057;51.024;7.540;2023-05-29T00:08:19;15.52;;;14.50;;
15454;SDS011;21057;51.024;7.540;2023-05-29T00:10:46;14.80;;;13.88;;
15454;SDS011;21057;51.024;7.540;2023-05-29T00:13:13;16.20;;;15.20;;
15454;SDS011;21057;51.024;7.540;2023-05-29T00:15:40;15.30;;;14.40;;
15454;SDS011;21057;51.024;7.540;2023-05-29T00:18:08;15.70;;;14.60;;
15454;SDS011;21057;51.024;7.540;2023-05-29T00:20:35;14.93;;;14.13;;
15454;SDS011;21057;51.024;7.540;2023-05-29T00:23:03;15.32;;;14.32;;
15454;SDS011;21057;51.024;7.540;2023-05-29T00:25:31;14.75;;;13.95;;
15454;SDS011;21057;51.024;7.540;2023-05-29T00:27:58;15.38;;;14.27;;
15454;SDS011;21057;51.024;7.540;2023-05-29T00:30:25;15.65;;;14.55;;
15454;SDS011;21057;51.024;7.540;2023-05-29T00:32:52;15.30;;;14.30;;
15454;SDS011;21057;51.024;7.540;2023-05-29T00:35:20;15.82;;;14.77;;
15454;SDS011;21057;51.024;7.540;2023-05-29T00:37:47;16.33;;;15.00;;
15454;SDS011;21057;51.024;7.540;2023-05-29T00:40:16;15.55;;;14.55;;
15454;SDS011;21057;51.024;7.540;2023-05-29T00:42:43;15.80;;;14.90;;
15454;SDS011;21057;51.024;7.540;2023-05-29T00:45:10;15.30;;;14.35;;
15454;SDS011;21057;51.024;7.540;2023-05-29T00:47:38;16.15;;;14.77;;
15454;SDS011;21057;51.024;7.540;2023-05-29T00:50:06;15.70;;;14.70;;
15454;SDS011;21057;51.024;7.540;2023-05-29T00:52:35;16.45;;;15.30;;
15454;SDS011;21057;51.024;7.540;2023-05-29T00:55:04;15.93;;;14.82;;
15454;SDS011;21057;51.024;7.540;2023-05-29T00:57:33;15.55;;;14.63;;
15454;SDS011;21057;51.024;7.540;2023-05-29T01:00:01;15.70;;;14.50;;
15454;SDS011;21057;51.024;7.540;2023-05-29T01:02:31;15.45;;;14.40;;
15454;SDS011;21057;51.024;7.540;2023-05-29T01:04:58;15.63;;;14.73;;
15454;SDS011;21057;51.024;7.540;2023-05-29T01:07:25;15.70;;;14.60;;
15454;SDS011;21057;51.024;7.540;2023-05-29T01:09:53;15.30;;;14.40;;
15454;SDS011;21057;51.024;7.540;2023-05-29T01:12:23;16.95;;;15.77;;
15454;SDS011;21057;51.024;7.540;2023-05-29T01:15:04;16.52;;;15.32;;
15454;SDS011;21057;51.024;7.540;2023-05-29T01:17:47;16.65;;;15.55;;
15454;SDS011;21057;51.024;7.540;2023-05-29T01:20:27;15.48;;;14.57;;
15454;SDS011;21057;51.024;7.540;2023-05-29T01:26:23;16.73;;;15.77;;
15454;SDS011;21057;51.024;7.540;2023-05-29T01:29:18;15.80;;;15.00;;
15454;SDS011;21057;51.024;7.540;2023-05-29T01:31:49;16.85;;;15.77;;
15454;SDS011;21057;51.024;7.540;2023-05-29T01:34:17;16.48;;;15.48;;
15454;SDS011;21057;51.024;7.540;2023-05-29T01:36:44;15.43;;;14.52;;
15454;SDS011;21057;51.024;7.540;2023-05-29T01:39:12;16.48;;;15.25;;
15454;SDS011;21057;51.024;7.540;2023-05-29T01:41:40;15.55;;;14.55;;
15454;SDS011;21057;51.024;7.540;2023-05-29T01:44:09;19.77;;;18.15;;
15454;SDS011;21057;51.024;7.540;2023-05-29T01:46:39;18.30;;;16.88;;
15454;SDS011;21057;51.024;7.540;2023-05-29T01:49:07;17.15;;;15.98;;
15454;SDS011;21057;51.024;7.540;2023-05-29T01:51:35;16.33;;;15.32;;
15454;SDS011;21057;51.024;7.540;2023-05-29T01:54:02;17.33;;;15.40;;
15454;SDS011;21057;51.024;7.540;2023-05-29T01:56:29;16.38;;;15.38;;
15454;SDS011;21057;51.024;7.540;2023-05-29T01:58:57;16.88;;;15.68;;
15454;SDS011;21057;51.024;7.540;2023-05-29T02:01:25;16.38;;;15.48;;
15454;SDS011;21057;51.024;7.540;2023-05-29T02:03:53;16.48;;;15.48;;
15454;SDS011;21057;51.024;7.540;2023-05-29T02:06:20;16.73;;;15.38;;
15454;SDS011;21057;51.024;7.540;2023-05-29T02:08:47;16.52;;;15.52;;
15454;SDS011;21057;51.024;7.540;2023-05-29T02:11:14;16.60;;;15.40;;
15454;SDS011;21057;51.024;7.540;2023-05-29T02:13:41;15.85;;;14.80;;
15454;SDS011;21057;51.024;7.540;2023-05-29T02:16:08;15.93;;;14.95;;
15454;SDS011;21057;51.024;7.540;2023-05-29T02:18:35;17.02;;;15.60;;
15454;SDS011;21057;51.024;7.540;2023-05-29T02:21:03;16.43;;;15.50;;
15454;SDS011;21057;51.024;7.540;2023-05-29T02:23:30;15.35;;;14.55;;
15454;SDS011;21057;51.024;7.540;2023-05-29T02:25:57;17.20;;;16.03;;
15454;SDS011;21057;51.024;7.540;2023-05-29T02:28:24;16.77;;;15.77;;
15454;SDS011;21057;51.024;7.540;2023-05-29T02:30:51;17.50;;;16.40;;
15454;SDS011;21057;51.024;7.540;2023-05-29T02:33:18;16.40;;;15.30;;
15454;SDS011;21057;51.024;7.540;2023-05-29T02:35:46;18.10;;;17.00;;
15454;SDS011;21057;51.024;7.540;2023-05-29T02:38:14;14.75;;;13.93;;
15454;SDS011;21057;51.024;7.540;2023-05-29T02:40:41;15.00;;;14.20;;
15454;SDS011;21057;51.024;7.540;2023-05-29T02:43:09;14.70;;;13.90;;
15454;SDS011;21057;51.024;7.540;2023-05-29T02:45:38;17.73;;;16.00;;
15454;SDS011;21057;51.024;7.540;2023-05-29T02:48:05;16.10;;;15.03;;
15454;SDS011;21057;51.024;7.540;2023-05-29T02:50:32;15.87;;;14.90;;
15454;SDS011;21057;51.024;7.540;2023-05-29T02:52:59;16.47;;;15.37;;
15454;SDS011;21057;51.024;7.540;2023-05-29T02:55:28;15.03;;;14.13;;
15454;SDS011;21057;51.024;7.540;2023-05-29T02:57:57;16.27;;;15.27;;
15454;SDS011;21057;51.024;7.540;2023-05-29T03:00:24;15.40;;;14.53;;
15454;SDS011;21057;51.024;7.540;2023-05-29T03:02:53;15.60;;;14.70;;
15454;SDS011;21057;51.024;7.540;2023-05-29T03:05:20;16.43;;;15.07;;
15454;SDS011;21057;51.024;7.540;2023-05-29T03:07:47;15.80;;;14.80;;
15454;SDS011;21057;51.024;7.540;2023-05-29T03:10:14;17.10;;;15.80;;
15454;SDS011;21057;51.024;7.540;2023-05-29T03:12:43;15.50;;;14.50;;
15454;SDS011;21057;51.024;7.540;2023-05-29T03:15:11;17.13;;;15.70;;
15454;SDS011;21057;51.024;7.540;2023-05-29T03:17:38;16.57;;;15.50;;
15454;SDS011;21057;51.024;7.540;2023-05-29T03:20:05;17.37;;;16.17;;
15454;SDS011;21057;51.024;7.540;2023-05-29T03:22:33;17.07;;;16.03;;
15454;SDS011;21057;51.024;7.540;2023-05-29T03:25:01;17.83;;;16.63;;
15454;SDS011;21057;51.024;7.540;2023-05-29T03:27:28;17.67;;;16.10;;
15454;SDS011;21057;51.024;7.540;2023-05-29T03:29:57;17.00;;;16.00;;
15454;SDS011;21057;51.024;7.540;2023-05-29T03:32:24;18.33;;;16.93;;
15454;SDS011;21057;51.024;7.540;2023-05-29T03:34:51;16.77;;;15.77;;
15454;SDS011;21057;51.024;7.540;2023-05-29T03:37:18;19.50;;;17.93;;
15454;SDS011;21057;51.024;7.540;2023-05-29T03:39:46;17.80;;;16.33;;
15454;SDS011;21057;51.024;7.540;2023-05-29T03:42:13;19.50;;;17.83;;
15454;SDS011;21057;51.024;7.540;2023-05-29T03:44:40;17.97;;;16.83;;
15454;SDS011;21057;51.024;7.540;2023-05-29T03:47:08;17.93;;;16.90;;
15454;SDS011;21057;51.024;7.540;2023-05-29T03:49:35;18.70;;;17.40;;
15454;SDS011;21057;51.024;7.540;2023-05-29T03:52:02;19.70;;;18.40;;
15454;SDS011;21057;51.024;7.540;2023-05-29T03:54:29;18.33;;;17.23;;
15454;SDS011;21057;51.024;7.540;2023-05-29T03:56:56;18.07;;;16.80;;
15454;SDS011;21057;51.024;7.540;2023-05-29T03:59:23;17.57;;;16.50;;
15454;SDS011;21057;51.024;7.540;2023-05-29T04:01:50;20.17;;;18.30;;
15454;SDS011;21057;51.024;7.540;2023-05-29T04:04:18;18.83;;;17.63;;
15454;SDS011;21057;51.024;7.540;2023-05-29T04:06:45;19.30;;;17.80;;
15454;SDS011;21057;51.024;7.540;2023-05-29T04:09:12;20.57;;;18.53;;
15454;SDS011;21057;51.024;7.540;2023-05-29T04:11:39;19.50;;;18.20;;
15454;SDS011;21057;51.024;7.540;2023-05-29T04:14:06;21.97;;;18.23;;
15454;SDS011;21057;51.024;7.540;2023-05-29T04:16:34;20.00;;;18.80;;
15454;SDS011;21057;51.024;7.540;2023-05-29T04:19:01;18.83;;;17.10;;
15454;SDS011;21057;51.024;7.540;2023-05-29T04:21:30;19.73;;;17.63;;
15454;SDS011;21057;51.024;7.540;2023-05-29T04:23:59;19.10;;;17.50;;
15454;SDS011;21057;51.024;7.540;2023-05-29T04:26:26;18.17;;;16.90;;
15454;SDS011;21057;51.024;7.540;2023-05-29T04:28:53;18.60;;;17.27;;
15454;SDS011;21057;51.024;7.540;2023-05-29T04:31:22;18.30;;;17.20;;
15454;SDS011;21057;51.024;7.540;2023-05-29T04:33:50;18.57;;;17.03;;
15454;SDS011;21057;51.024;7.540;2023-05-29T04:36:20;18.73;;;17.43;;
15454;SDS011;21057;51.024;7.540;2023-05-29T04:38:52;18.67;;;17.67;;
15454;SDS011;21057;51.024;7.540;2023-05-29T04:41:18;19.17;;;17.67;;
15454;SDS011;21057;51.024;7.540;2023-05-29T04:43:48;19.40;;;18.10;;
15454;SDS011;21057;51.024;7.540;2023-05-29T04:46:16;18.73;;;17.48;;
15454;SDS011;21057;51.024;7.540;2023-05-29T04:48:43;19.03;;;17.37;;
15454;SDS011;21057;51.024;7.540;2023-05-29T04:51:10;18.33;;;17.03;;
15454;SDS011;21057;51.024;7.540;2023-05-29T04:53:37;18.83;;;17.60;;
15454;SDS011;21057;51.024;7.540;2023-05-29T04:56:06;18.50;;;17.33;;
15454;SDS011;21057;51.024;7.540;2023-05-29T04:58:34;18.33;;;17.13;;
15454;SDS011;21057;51.024;7.540;2023-05-29T05:01:01;18.17;;;16.97;;
15454;SDS011;21057;51.024;7.540;2023-05-29T05:03:28;17.97;;;16.80;;
15454;SDS011;21057;51.024;7.540;2023-05-29T05:05:56;19.07;;;17.67;;
15454;SDS011;21057;51.024;7.540;2023-05-29T05:08:23;18.00;;;16.90;;
15454;SDS011;21057;51.024;7.540;2023-05-29T05:10:50;18.20;;;17.10;;
15454;SDS011;21057;51.024;7.540;2023-05-29T05:13:18;18.53;;;17.07;;
15454;SDS011;21057;51.024;7.540;2023-05-29T05:15:45;17.80;;;16.70;;
15454;SDS011;21057;51.024;7.540;2023-05-29T05:18:12;18.70;;;17.35;;
15454;SDS011;21057;51.024;7.540;2023-05-29T05:20:39;18.10;;;16.80;;
15454;SDS011;21057;51.024;7.540;2023-05-29T05:23:06;18.37;;;17.17;;
15454;SDS011;21057;51.024;7.540;2023-05-29T05:25:33;18.57;;;17.27;;
15454;SDS011;21057;51.024;7.540;2023-05-29T05:28:00;19.43;;;17.97;;
15454;SDS011;21057;51.024;7.540;2023-05-29T05:30:29;18.98;;;17.67;;
15454;SDS011;21057;51.024;7.540;2023-05-29T05:32:56;18.45;;;17.08;;
15454;SDS011;21057;51.024;7.540;2023-05-29T05:35:23;18.75;;;17.20;;
15454;SDS011;21057;51.024;7.540;2023-05-29T05:37:50;18.20;;;16.90;;
15454;SDS011;21057;51.024;7.540;2023-05-29T05:40:18;18.85;;;17.45;;
15454;SDS011;21057;51.024;7.540;2023-05-29T05:42:44;18.00;;;16.58;;
15454;SDS011;21057;51.024;7.540;2023-05-29T05:45:11;18.10;;;16.88;;
15454;SDS011;21057;51.024;7.540;2023-05-29T05:47:39;17.55;;;16.55;;
15454;SDS011;21057;51.024;7.540;2023-05-29T05:50:06;18.92;;;17.73;;
15454;SDS011;21057;51.024;7.540;2023-05-29T05:52:34;18.08;;;16.92;;
15454;SDS011;21057;51.024;7.540;2023-05-29T05:55:01;19.95;;;17.40;;
15454;SDS011;21057;51.024;7.540;2023-05-29T05:57:28;18.13;;;16.85;;
15454;SDS011;21057;51.024;7.540;2023-05-29T05:59:57;17.77;;;16.52;;
15454;SDS011;21057;51.024;7.540;2023-05-29T06:02:24;17.20;;;16.20;;
15454;SDS011;21057;51.024;7.540;2023-05-29T06:04:52;17.55;;;16.45;;
15454;SDS011;21057;51.024;7.540;2023-05-29T06:07:19;17.98;;;16.45;;
15454;SDS011;21057;51.024;7.540;2023-05-29T06:09:46;18.17;;;16.95;;
15454;SDS011;21057;51.024;7.540;2023-05-29T06:12:13;18.38;;;17.20;;
15454;SDS011;21057;51.024;7.540;2023-05-29T06:14:40;17.90;;;16.65;;
15454;SDS011;21057;51.024;7.540;2023-05-29T06:17:07;18.55;;;17.17;;
15454;SDS011;21057;51.024;7.540;2023-05-29T06:19:34;17.63;;;16.30;;
15454;SDS011;21057;51.024;7.540;2023-05-29T06:22:02;18.52;;;17.33;;
15454;SDS011;21057;51.024;7.540;2023-05-29T06:24:29;18.65;;;17.35;;
15454;SDS011;21057;51.024;7.540;2023-05-29T06:26:56;17.88;;;16.60;;
15454;SDS011;21057;51.024;7.540;2023-05-29T06:29:23;17.75;;;16.73;;
15454;SDS011;21057;51.024;7.540;2023-05-29T06:31:50;18.20;;;17.10;;
15454;SDS011;21057;51.024;7.540;2023-05-29T06:34:17;18.35;;;17.10;;
15454;SDS011;21057;51.024;7.540;2023-05-29T06:36:44;17.92;;;16.73;;
15454;SDS011;21057;51.024;7.540;2023-05-29T06:39:13;18.85;;;17.20;;
15454;SDS011;21057;51.024;7.540;2023-05-29T06:41:40;18.15;;;16.95;;
15454;SDS011;21057;51.024;7.540;2023-05-29T06:44:07;19.25;;;17.95;;
15454;SDS011;21057;51.024;7.540;2023-05-29T06:46:34;18.02;;;16.92;;
15454;SDS011;21057;51.024;7.540;2023-05-29T06:49:01;18.25;;;16.85;;
15454;SDS011;21057;51.024;7.540;2023-05-29T06:51:28;17.88;;;16.67;;
15454;SDS011;21057;51.024;7.540;2023-05-29T06:53:57;19.58;;;17.95;;
15454;SDS011;21057;51.024;7.540;2023-05-29T06:56:26;19.50;;;17.95;;
15454;SDS011;21057;51.024;7.540;2023-05-29T06:58:52;18.42;;;17.13;;
15454;SDS011;21057;51.024;7.540;2023-05-29T07:01:19;18.70;;;17.23;;
15454;SDS011;21057;51.024;7.540;2023-05-29T07:03:46;17.50;;;16.20;;
15454;SDS011;21057;51.024;7.540;2023-05-29T07:06:17;17.70;;;16.20;;
15454;SDS011;21057;51.024;7.540;2023-05-29T07:08:44;18.20;;;16.80;;
15454;SDS011;21057;51.024;7.540;2023-05-29T07:11:11;17.90;;;16.58;;
15454;SDS011;21057;51.024;7.540;2023-05-29T07:13:39;17.75;;;16.55;;
15454;SDS011;21057;51.024;7.540;2023-05-29T07:16:06;18.05;;;16.95;;
15454;SDS011;21057;51.024;7.540;2023-05-29T07:18:33;18.38;;;17.08;;
15454;SDS011;21057;51.024;7.540;2023-05-29T07:21:00;18.58;;;17.48;;
15454;SDS011;21057;51.024;7.540;2023-05-29T07:23:27;18.00;;;16.75;;
15454;SDS011;21057;51.024;7.540;2023-05-29T07:25:54;18.70;;;17.50;;
15454;SDS011;21057;51.024;7.540;2023-05-29T07:28:21;18.52;;;17.33;;
15454;SDS011;21057;51.024;7.540;2023-05-29T07:30:49;18.65;;;17.45;;
15454;SDS011;21057;51.024;7.540;2023-05-29T07:33:16;19.00;;;17.60;;
15454;SDS011;21057;51.024;7.540;2023-05-29T07:35:43;19.90;;;18.50;;
15454;SDS011;21057;51.024;7.540;2023-05-29T07:38:09;18.55;;;17.35;;
15454;SDS011;21057;51.024;7.540;2023-05-29T07:40:36;18.50;;;17.13;;
15454;SDS011;21057;51.024;7.540;2023-05-29T07:43:03;17.88;;;16.80;;
15454;SDS011;21057;51.024;7.540;2023-05-29T07:45:30;19.15;;;17.83;;
15454;SDS011;21057;51.024;7.540;2023-05-29T07:47:59;18.83;;;17.60;;
15454;SDS011;21057;51.024;7.540;2023-05-29T07:50:25;19.63;;;18.00;;
15454;SDS011;21057;51.024;7.540;2023-05-29T07:52:52;19.20;;;18.00;;
15454;SDS011;21057;51.024;7.540;2023-05-29T07:55:21;18.70;;;17.55;;
15454;SDS011;21057;51.024;7.540;2023-05-29T07:57:48;19.33;;;18.02;;
15454;SDS011;21057;51.024;7.540;2023-05-29T08:00:15;19.27;;;17.80;;
15454;SDS011;21057;51.024;7.540;2023-05-29T08:02:42;17.90;;;16.80;;
15454;SDS011;21057;51.024;7.540;2023-05-29T08:05:11;18.85;;;17.65;;
15454;SDS011;21057;51.024;7.540;2023-05-29T08:07:38;18.55;;;17.33;;
15454;SDS011;21057;51.024;7.540;2023-05-29T08:10:07;18.40;;;17.30;;
15454;SDS011;21057;51.024;7.540;2023-05-29T08:12:34;18.35;;;16.85;;
15454;SDS011;21057;51.024;7.540;2023-05-29T08:15:01;18.20;;;16.90;;
15454;SDS011;21057;51.024;7.540;2023-05-29T08:17:28;18.42;;;17.23;;
15454;SDS011;21057;51.024;7.540;2023-05-29T08:19:55;18.15;;;16.90;;
15454;SDS011;21057;51.024;7.540;2023-05-29T08:22:28;17.73;;;16.55;;
15454;SDS011;21057;51.024;7.540;2023-05-29T08:24:56;18.90;;;17.38;;
15454;SDS011;21057;51.024;7.540;2023-05-29T08:27:22;18.08;;;16.88;;
15454;SDS011;21057;51.024;7.540;2023-05-29T08:29:49;18.23;;;16.75;;
15454;SDS011;21057;51.024;7.540;2023-05-29T08:32:16;20.02;;;18.75;;
15454;SDS011;21057;51.024;7.540;2023-05-29T08:34:43;18.52;;;17.23;;
15454;SDS011;21057;51.024;7.540;2023-05-29T08:37:11;18.85;;;17.52;;
15454;SDS011;21057;51.024;7.540;2023-05-29T08:39:39;18.15;;;16.85;;
15454;SDS011;21057;51.024;7.540;2023-05-29T08:42:07;18.63;;;17.33;;
15454;SDS011;21057;51.024;7.540;2023-05-29T08:44:36;18.02;;;16.92;;
15454;SDS011;21057;51.024;7.540;2023-05-29T08:47:06;17.58;;;16.38;;
15454;SDS011;21057;51.024;7.540;2023-05-29T08:49:37;17.75;;;16.55;;
15454;SDS011;21057;51.024;7.540;2023-05-29T08:52:09;17.85;;;16.55;;
15454;SDS011;21057;51.024;7.540;2023-05-29T08:54:39;18.38;;;17.10;;
15454;SDS011;21057;51.024;7.540;2023-05-29T08:57:07;18.33;;;16.83;;
15454;SDS011;21057;51.024;7.540;2023-05-29T08:59:34;17.67;;;16.48;;
15454;SDS011;21057;51.024;7.540;2023-05-29T09:02:03;19.42;;;17.90;;
15454;SDS011;21057;51.024;7.540;2023-05-29T09:04:30;18.73;;;17.25;;
15454;SDS011;21057;51.024;7.540;2023-05-29T09:06:58;18.70;;;17.40;;
15454;SDS011;21057;51.024;7.540;2023-05-29T09:09:25;17.80;;;16.63;;
15454;SDS011;21057;51.024;7.540;2023-05-29T09:11:54;18.58;;;17.38;;
15454;SDS011;21057;51.024;7.540;2023-05-29T09:14:34;18.65;;;16.88;;
15454;SDS011;21057;51.024;7.540;2023-05-29T09:17:02;17.48;;;16.17;;
15454;SDS011;21057;51.024;7.540;2023-05-29T09:19:30;16.73;;;15.63;;
15454;SDS011;21057;51.024;7.540;2023-05-29T09:22:01;16.77;;;15.63;;
15454;SDS011;21057;51.024;7.540;2023-05-29T09:24:29;17.15;;;15.95;;
15454;SDS011;21057;51.024;7.540;2023-05-29T09:26:58;17.63;;;16.33;;
15454;SDS011;21057;51.024;7.540;2023-05-29T09:29:25;16.92;;;15.93;;
15454;SDS011;21057;51.024;7.540;2023-05-29T09:31:52;17.00;;;15.80;;
15454;SDS011;21057;51.024;7.540;2023-05-29T09:34:19;18.10;;;16.77;;
15454;SDS011;21057;51.024;7.540;2023-05-29T09:36:50;17.13;;;16.13;;
15454;SDS011;21057;51.024;7.540;2023-05-29T09:39:17;17.58;;;16.48;;
15454;SDS011;21057;51.024;7.540;2023-05-29T09:41:44;18.08;;;16.85;;
15454;SDS011;21057;51.024;7.540;2023-05-29T09:44:16;17.90;;;16.70;;
15454;SDS011;21057;51.024;7.540;2023-05-29T09:46:42;18.63;;;17.33;;
15454;SDS011;21057;51.024;7.540;2023-05-29T09:49:11;18.52;;;17.35;;
15454;SDS011;21057;51.024;7.540;2023-05-29T09:51:39;17.92;;;16.73;;
15454;SDS011;21057;51.024;7.540;2023-05-29T09:54:14;17.08;;;16.08;;
15454;SDS011;21057;51.024;7.540;2023-05-29T09:56:42;17.35;;;16.25;;
15454;SDS011;21057;51.024;7.540;2023-05-29T09:59:10;18.08;;;16.73;;
15454;SDS011;21057;51.024;7.540;2023-05-29T10:01:41;17.30;;;16.10;;
15454;SDS011;21057;51.024;7.540;2023-05-29T10:04:09;18.38;;;16.85;;
15454;SDS011;21057;51.024;7.540;2023-05-29T10:06:37;16.70;;;15.70;;
15454;SDS011;21057;51.024;7.540;2023-05-29T10:09:09;17.38;;;16.13;;
15454;SDS011;21057;51.024;7.540;2023-05-29T10:11:39;17.05;;;15.90;;
15454;SDS011;21057;51.024;7.540;2023-05-29T10:14:09;17.15;;;15.93;;
15454;SDS011;21057;51.024;7.540;2023-05-29T10:16:43;17.52;;;16.52;;
15454;SDS011;21057;51.024;7.540;2023-05-29T10:19:12;17.30;;;15.95;;
15454;SDS011;21057;51.024;7.540;2023-05-29T10:21:45;18.55;;;16.85;;
15454;SDS011;21057;51.024;7.540;2023-05-29T10:24:13;17.83;;;16.30;;
15454;SDS011;21057;51.024;7.540;2023-05-29T10:26:40;17.70;;;16.38;;
15454;SDS011;21057;51.024;7.540;2023-05-29T10:29:12;17.25;;;16.15;;
15454;SDS011;21057;51.024;7.540;2023-05-29T10:31:48;17.80;;;16.58;;
15454;SDS011;21057;51.024;7.540;2023-05-29T10:34:29;18.48;;;17.38;;
15454;SDS011;21057;51.024;7.540;2023-05-29T10:37:06;18.67;;;17.48;;
15454;SDS011;21057;51.024;7.540;2023-05-29T10:39:40;18.88;;;17.67;;
15454;SDS011;21057;51.024;7.540;2023-05-29T10:45:08;18.92;;;17.60;;
15454;SDS011;21057;51.024;7.540;2023-05-29T10:47:38;19.27;;;18.10;;
15454;SDS011;21057;51.024;7.540;2023-05-29T10:50:05;18.15;;;17.05;;
15454;SDS011;21057;51.024;7.540;2023-05-29T10:52:35;18.05;;;16.85;;
15454;SDS011;21057;51.024;7.540;2023-05-29T10:55:11;18.80;;;17.45;;
15454;SDS011;21057;51.024;7.540;2023-05-29T10:57:46;18.27;;;17.08;;
15454;SDS011;21057;51.024;7.540;2023-05-29T11:00:15;18.38;;;17.00;;
15454;SDS011;21057;51.024;7.540;2023-05-29T11:02:47;18.58;;;17.20;;
15454;SDS011;21057;51.024;7.540;2023-05-29T11:05:18;19.10;;;18.00;;
15454;SDS011;21057;51.024;7.540;2023-05-29T11:07:53;17.88;;;16.52;;
15454;SDS011;21057;51.024;7.540;2023-05-29T11:13:09;18.42;;;16.92;;
15454;SDS011;21057;51.024;7.540;2023-05-29T11:15:36;18.25;;;17.15;;
15454;SDS011;21057;51.024;7.540;2023-05-29T11:18:08;18.58;;;17.20;;
15454;SDS011;21057;51.024;7.540;2023-05-29T11:20:42;18.17;;;17.08;;
15454;SDS011;21057;51.024;7.540;2023-05-29T11:23:15;18.58;;;17.38;;
15454;SDS011;21057;51.024;7.540;2023-05-29T11:25:44;18.15;;;16.90;;
15454;SDS011;21057;51.024;7.540;2023-05-29T11:28:12;19.10;;;17.65;;
15454;SDS011;21057;51.024;7.540;2023-05-29T11:30:45;18.50;;;17.13;;
15454;SDS011;21057;51.024;7.540;2023-05-29T11:33:22;18.67;;;17.27;;
15454;SDS011;21057;51.024;7.540;2023-05-29T11:35:54;19.05;;;17.65;;
15454;SDS011;21057;51.024;7.540;2023-05-29T11:38:23;18.95;;;17.85;;
15454;SDS011;21057;51.024;7.540;2023-05-29T11:40:50;19.00;;;17.80;;
15454;SDS011;21057;51.024;7.540;2023-05-29T11:43:18;18.23;;;17.08;;
15454;SDS011;21057;51.024;7.540;2023-05-29T11:45:45;18.23;;;17.13;;
15454;SDS011;21057;51.024;7.540;2023-05-29T11:48:12;18.83;;;17.65;;
15454;SDS011;21057;51.024;7.540;2023-05-29T11:50:41;18.42;;;17.23;;
15454;SDS011;21057;51.024;7.540;2023-05-29T11:53:08;18.20;;;17.08;;
15454;SDS011;21057;51.024;7.540;2023-05-29T11:58:44;18.63;;;17.42;;
15454;SDS011;21057;51.024;7.540;2023-05-29T12:01:23;18.02;;;16.83;;
15454;SDS011;21057;51.024;7.540;2023-05-29T12:03:50;17.77;;;16.67;;
15454;SDS011;21057;51.024;7.540;2023-05-29T12:09:22;18.38;;;17.08;;
15454;SDS011;21057;51.024;7.540;2023-05-29T12:12:02;19.15;;;17.85;;
15454;SDS011;21057;51.024;7.540;2023-05-29T12:14:31;19.23;;;17.92;;
15454;SDS011;21057;51.024;7.540;2023-05-29T12:16:59;19.30;;;18.00;;
15454;SDS011;21057;51.024;7.540;2023-05-29T12:19:39;19.17;;;17.92;;
15454;SDS011;21057;51.024;7.540;2023-05-29T12:22:30;19.98;;;18.40;;
15454;SDS011;21057;51.024;7.540;2023-05-29T12:27:33;20.13;;;18.52;;
15454;SDS011;21057;51.024;7.540;2023-05-29T12:30:06;19.52;;;18.00;;
15454;SDS011;21057;51.024;7.540;2023-05-29T12:32:46;20.15;;;18.67;;
15454;SDS011;21057;51.024;7.540;2023-05-29T12:38:18;19.10;;;17.90;;
15454;SDS011;21057;51.024;7.540;2023-05-29T12:40:50;19.38;;;18.13;;
15454;SDS011;21057;51.024;7.540;2023-05-29T12:43:26;19.95;;;18.45;;
15454;SDS011;21057;51.024;7.540;2023-05-29T12:46:00;18.83;;;17.58;;
15454;SDS011;21057;51.024;7.540;2023-05-29T12:48:43;19.33;;;17.88;;
15454;SDS011;21057;51.024;7.540;2023-05-29T12:51:10;19.60;;;18.17;;
15454;SDS011;21057;51.024;7.540;2023-05-29T12:53:38;20.55;;;18.80;;
15454;SDS011;21057;51.024;7.540;2023-05-29T12:58:57;19.52;;;18.20;;
15454;SDS011;21057;51.024;7.540;2023-05-29T13:01:26;20.05;;;18.60;;
15454;SDS011;21057;51.024;7.540;2023-05-29T13:03:54;20.35;;;18.92;;
15454;SDS011;21057;51.024;7.540;2023-05-29T13:06:21;19.75;;;18.35;;
15454;SDS011;21057;51.024;7.540;2023-05-29T13:08:49;20.15;;;18.75;;
15454;SDS011;21057;51.024;7.540;2023-05-29T13:11:16;20.00;;;18.55;;
15454;SDS011;21057;51.024;7.540;2023-05-29T13:13:50;19.55;;;18.35;;
15454;SDS011;21057;51.024;7.540;2023-05-29T13:16:19;19.60;;;18.40;;
15454;SDS011;21057;51.024;7.540;2023-05-29T13:18:48;19.33;;;18.23;;
15454;SDS011;21057;51.024;7.540;2023-05-29T13:21:19;18.63;;;17.42;;
15454;SDS011;21057;51.024;7.540;2023-05-29T13:23:46;19.20;;;17.90;;
15454;SDS011;21057;51.024;7.540;2023-05-29T13:26:14;19.25;;;17.92;;
15454;SDS011;21057;51.024;7.540;2023-05-29T13:28:59;18.50;;;17.38;;
15454;SDS011;21057;51.024;7.540;2023-05-29T13:34:07;20.00;;;18.48;;
15454;SDS011;21057;51.024;7.540;2023-05-29T13:36:34;18.45;;;17.35;;
15454;SDS011;21057;51.024;7.540;2023-05-29T13:39:01;19.83;;;18.40;;
15454;SDS011;21057;51.024;7.540;2023-05-29T13:41:28;19.20;;;17.80;;
15454;SDS011;21057;51.024;7.540;2023-05-29T13:43:55;18.13;;;17.00;;
15454;SDS011;21057;51.024;7.540;2023-05-29T13:46:22;18.75;;;17.40;;
15454;SDS011;21057;51.024;7.540;2023-05-29T13:48:49;18.85;;;17.65;;
15454;SDS011;21057;51.024;7.540;2023-05-29T13:51:17;18.63;;;17.33;;
15454;SDS011;21057;51.024;7.540;2023-05-29T13:53:44;18.80;;;17.50;;
15454;SDS011;21057;51.024;7.540;2023-05-29T13:56:11;18.00;;;16.90;;
15454;SDS011;21057;51.024;7.540;2023-05-29T13:58:37;18.30;;;17.10;;
15454;SDS011;21057;51.024;7.540;2023-05-29T14:01:05;18.45;;;17.15;;
15454;SDS011;21057;51.024;7.540;2023-05-29T14:03:32;19.02;;;17.60;;
15454;SDS011;21057;51.024;7.540;2023-05-29T14:05:59;18.98;;;17.88;;
15454;SDS011;21057;51.024;7.540;2023-05-29T14:08:29;18.00;;;16.90;;
15454;SDS011;21057;51.024;7.540;2023-05-29T14:10:56;18.35;;;17.20;;
15454;SDS011;21057;51.024;7.540;2023-05-29T14:13:23;18.50;;;17.20;;
15454;SDS011;21057;51.024;7.540;2023-05-29T14:15:49;18.08;;;16.98;;
15454;SDS011;21057;51.024;7.540;2023-05-29T14:18:17;18.67;;;17.48;;
15454;SDS011;21057;51.024;7.540;2023-05-29T14:20:43;18.08;;;16.98;;
15454;SDS011;21057;51.024;7.540;2023-05-29T14:23:13;17.98;;;16.85;;
15454;SDS011;21057;51.024;7.540;2023-05-29T14:25:42;18.50;;;17.00;;
15454;SDS011;21057;51.024;7.540;2023-05-29T14:28:09;19.70;;;17.88;;
15454;SDS011;21057;51.024;7.540;2023-05-29T14:30:37;18.58;;;17.33;;
15454;SDS011;21057;51.024;7.540;2023-05-29T14:33:04;18.40;;;17.20;;
15454;SDS011;21057;51.024;7.540;2023-05-29T14:35:31;19.15;;;17.95;;
15454;SDS011;21057;51.024;7.540;2023-05-29T14:37:58;19.10;;;17.80;;
15454;SDS011;21057;51.024;7.540;2023-05-29T14:40:25;18.55;;;17.35;;
15454;SDS011;21057;51.024;7.540;2023-05-29T14:42:53;18.58;;;17.48;;
15454;SDS011;21057;51.024;7.540;2023-05-29T14:45:21;19.25;;;17.95;;
15454;SDS011;21057;51.024;7.540;2023-05-29T14:47:47;18.50;;;17.35;;
15454;SDS011;21057;51.024;7.540;2023-05-29T14:50:15;18.55;;;17.25;;
15454;SDS011;21057;51.024;7.540;2023-05-29T14:52:41;18.98;;;17.50;;
15454;SDS011;21057;51.024;7.540;2023-05-29T14:55:08;21.02;;;18.90;;